Time;durP1;ratioP1;P1;durP2;ratioP2;P2;SDS_P1;SDS_P2;PMS_P1;PMS_P2;Temp;Humidity;BMP_temperature;BMP_pressure;BME280_temperature;BME280_humidity;BME280_pressure;Samples;Min_cycle;Max_cycle;Signal;HPM_P1;HPM_P2
2022/05/01 00:03:31;;;;;;;2.87;2.67;;;;;;;6.38;81.45;99881.31;8229552;28;19926;-69
2022/05/01 00:07:33;;;;;;;3.07;2.77;;;;;;;6.33;81.93;99878.66;8224594;28;20093;-72
2022/05/01 00:11:34;;;;;;;6.60;2.80;;;;;;;6.28;81.40;99884.53;8233527;28;20748;-71
2022/05/01 00:15:36;;;;;;;2.97;2.70;;;;;;;6.16;81.91;99884.28;8227301;28;20078;-71
2022/05/01 00:19:37;;;;;;;2.77;2.57;;;;;;;6.05;81.68;99884.03;8231152;28;20082;-71
2022/05/01 00:23:56;;;;;;;7.47;2.67;;;;;;;5.91;81.53;99880.28;8215726;28;20034;-71
2022/05/01 00:27:58;;;;;;;6.73;3.00;;;;;;;5.85;81.68;99881.00;8234344;28;20543;-71
2022/05/01 00:31:59;;;;;;;2.97;2.67;;;;;;;5.81;81.73;99870.59;8213725;28;20050;-71
2022/05/01 00:40:21;;;;;;;5.37;2.83;;;;;;;5.63;81.70;99887.38;8205958;28;20049;-71
2022/05/01 00:44:23;;;;;;;5.07;3.23;;;;;;;5.51;82.02;99888.78;8207738;28;20067;-71
2022/05/01 00:48:24;;;;;;;4.67;3.00;;;;;;;5.47;82.11;99886.16;8198452;28;20166;-71
2022/05/01 00:52:26;;;;;;;8.32;2.90;;;;;;;5.42;81.95;99884.31;8202930;28;20097;-71
2022/05/01 00:56:29;;;;;;;3.57;2.83;;;;;;;5.35;82.19;99891.00;8203969;28;20514;-71
2022/05/01 01:00:34;;;;;;;2.93;2.73;;;;;;;5.25;82.32;99885.59;8204984;28;20126;-71
2022/05/01 01:04:36;;;;;;;3.10;2.80;;;;;;;5.12;82.51;99890.44;8206293;28;20352;-71
2022/05/01 01:08:38;;;;;;;4.80;2.80;;;;;;;5.10;83.25;99892.09;8187259;28;20098;-71
2022/05/01 01:12:55;;;;;;;4.03;3.40;;;;;;;5.05;83.26;99891.13;8203400;28;20047;-71
2022/05/01 01:16:57;;;;;;;3.23;3.03;;;;;;;5.04;83.06;99889.38;8181125;28;20081;-71
2022/05/01 01:20:59;;;;;;;;;;;;;;;4.99;82.78;99882.34;8182881;28;20054;-71
2022/05/01 01:25:01;;;;;;;3.30;2.47;;;;;;;4.88;82.88;99883.78;8202217;28;19926;-71
2022/05/01 01:31:40;;;;;;;3.40;3.08;;;;;;;4.76;82.92;99879.19;8204293;28;20062;-71
2022/05/01 01:33:28;;;;;;;3.10;2.80;;;;;;;4.67;83.24;99884.97;8199032;28;20074;-71
2022/05/01 01:37:30;;;;;;;2.80;2.60;;;;;;;4.63;83.10;99879.69;8222479;28;20051;-71
2022/05/01 01:41:32;;;;;;;3.75;3.15;;;;;;;4.56;83.52;99876.09;8223259;28;20043;-71
2022/05/01 01:45:33;;;;;;;4.22;2.78;;;;;;;4.53;83.49;99881.16;8217019;28;20383;-71
2022/05/01 01:49:35;;;;;;;3.13;2.87;;;;;;;4.50;83.30;99878.50;8203833;28;20046;-71
2022/05/01 01:53:37;;;;;;;3.10;2.67;;;;;;;4.48;83.42;99885.25;8235498;28;20062;-71
2022/05/01 01:57:38;;;;;;;2.90;2.57;;;;;;;4.45;83.52;99880.03;8216228;28;20512;-71
2022/05/01 02:01:42;;;;;;;3.70;3.33;;;;;;;4.43;83.78;99876.56;8218866;28;20066;-71
2022/05/01 02:05:46;;;;;;;3.97;3.20;;;;;;;4.44;83.91;99878.31;8238240;28;20438;-70
2022/05/01 02:09:48;;;;;;;3.30;2.97;;;;;;;4.40;83.96;99885.06;8210532;28;20129;-69
2022/05/01 02:13:49;;;;;;;3.60;3.30;;;;;;;4.33;83.88;99878.03;8229969;28;20437;-71
2022/05/01 02:17:51;;;;;;;3.53;3.23;;;;;;;4.25;83.39;99874.34;8228835;28;20085;-71
2022/05/01 02:21:54;;;;;;;4.13;2.87;;;;;;;4.20;83.81;99870.78;8221363;28;20751;-71
2022/05/01 02:25:55;;;;;;;4.23;2.93;;;;;;;4.17;83.67;99873.28;8221169;28;20081;-71
2022/05/01 02:30:00;;;;;;;4.83;3.17;;;;;;;4.16;83.55;99871.53;8239540;28;20051;-71
2022/05/01 02:34:02;;;;;;;3.80;2.88;;;;;;;4.16;83.80;99864.69;8234818;28;20101;-71
2022/05/01 02:38:04;;;;;;;3.27;2.97;;;;;;;4.07;83.38;99866.97;8227678;28;20082;-71
2022/05/01 02:42:06;;;;;;;4.53;2.80;;;;;;;3.99;83.66;99865.91;8240399;28;20055;-70
2022/05/01 02:46:08;;;;;;;3.10;2.90;;;;;;;3.93;83.95;99864.00;8232091;28;20058;-70
2022/05/01 02:50:10;;;;;;;3.37;3.07;;;;;;;3.93;84.31;99869.13;8241514;28;20058;-70
2022/05/01 02:54:11;;;;;;;3.38;2.72;;;;;;;3.92;84.66;99864.81;8221737;28;20057;-70
2022/05/01 02:58:13;;;;;;;3.63;2.90;;;;;;;3.96;84.71;99857.25;8219373;28;20050;-70
2022/05/01 03:02:15;;;;;;;3.67;3.37;;;;;;;3.96;84.70;99857.25;8228729;28;20362;-69
2022/05/01 03:06:17;;;;;;;3.20;3.00;;;;;;;3.98;84.41;99861.59;8232885;28;20052;-71
2022/05/01 03:10:19;;;;;;;4.88;3.28;;;;;;;3.92;84.92;99858.81;8233854;28;20046;-71
2022/05/01 03:14:19;;;;;;;3.00;2.80;;;;;;;3.87;84.91;99852.69;8218765;28;20049;-70
2022/05/01 03:22:41;;;;;;;3.20;2.90;;;;;;;3.80;85.05;99853.34;8216248;28;20386;-70
2022/05/01 03:26:42;;;;;;;3.13;2.93;;;;;;;3.78;84.76;99855.00;8210725;28;20044;-70
2022/05/01 03:30:44;;;;;;;3.35;3.05;;;;;;;3.73;84.78;99849.69;8231755;28;20149;-69
2022/05/01 03:34:45;;;;;;;3.40;3.20;;;;;;;3.65;84.51;99846.03;8209816;28;20074;-70
2022/05/01 03:38:47;;;;;;;4.23;3.20;;;;;;;3.61;84.60;99844.22;8237738;28;20676;-70
2022/05/01 03:42:48;;;;;;;3.30;3.00;;;;;;;3.56;84.68;99850.88;8232910;28;20042;-70
2022/05/01 03:46:50;;;;;;;3.80;3.50;;;;;;;3.48;84.68;99850.66;8210595;28;20142;-70
2022/05/01 03:50:52;;;;;;;4.97;3.50;;;;;;;3.46;85.13;99851.44;8229386;28;20054;-70
2022/05/01 03:54:54;;;;;;;3.00;2.85;;;;;;;3.44;85.13;99853.09;8233937;28;20053;-70
2022/05/01 03:58:57;;;;;;;3.20;2.90;;;;;;;3.43;85.26;99847.06;8208311;28;20068;-69
2022/05/01 04:02:58;;;;;;;3.87;3.57;;;;;;;3.40;85.51;99844.38;8233051;28;20054;-69
2022/05/01 04:07:00;;;;;;;3.90;3.60;;;;;;;3.38;85.53;99842.59;8205595;28;20070;-70
2022/05/01 04:11:03;;;;;;;3.53;3.30;;;;;;;3.39;85.87;99840.09;8219661;28;20053;-69
2022/05/01 04:15:08;;;;;;;4.13;3.37;;;;;;;3.46;86.22;99844.59;8233957;28;20053;-69
2022/05/01 04:19:11;;;;;;;3.60;3.37;;;;;;;3.48;86.22;99848.09;8233749;28;20058;-70
2022/05/01 04:23:13;;;;;;;4.50;4.15;;;;;;;3.48;85.83;99844.66;8219097;28;20054;-70
2022/05/01 04:27:14;;;;;;;5.60;3.63;;;;;;;3.50;86.45;99850.69;8218263;28;20077;-70
2022/05/01 04:31:16;;;;;;;4.17;3.80;;;;;;;3.56;86.47;99849.19;8230117;28;20061;-70
2022/05/01 04:35:43;;;;;;;4.60;4.20;;;;;;;3.64;86.45;99834.03;8222295;28;20087;-70
2022/05/01 04:39:44;;;;;;;4.47;3.50;;;;;;;3.67;86.73;99838.38;8214590;28;20066;-70
2022/05/01 04:43:47;;;;;;;4.18;3.65;;;;;;;3.72;86.56;99852.22;8225261;28;20610;-70
2022/05/01 04:47:48;;;;;;;4.20;3.63;;;;;;;3.77;86.62;99843.84;8232117;28;20767;-71
2022/05/01 04:51:49;;;;;;;4.23;3.50;;;;;;;3.85;86.58;99844.94;8236731;28;20042;-70
2022/05/01 04:55:54;;;;;;;4.13;3.73;;;;;;;3.94;86.85;99844.31;8221533;28;20643;-70
2022/05/01 04:59:55;;;;;;;5.13;3.80;;;;;;;3.98;86.88;99838.47;8235410;28;20193;-70
2022/05/01 05:03:58;;;;;;;7.23;3.90;;;;;;;3.96;87.27;99839.25;8228925;28;20938;-71
2022/05/01 05:12:24;;;;;;;4.20;3.83;;;;;;;4.11;88.29;99855.09;8237834;28;20066;-70
2022/05/01 05:16:29;;;;;;;4.20;3.80;;;;;;;4.24;88.08;99850.34;8226966;28;20470;-70
2022/05/01 05:20:30;;;;;;;5.37;4.23;;;;;;;4.41;88.31;99850.81;8237707;28;20047;-70
2022/05/01 05:24:32;;;;;;;4.13;3.73;;;;;;;4.50;87.45;99851.09;8221577;28;20042;-70
2022/05/01 05:28:33;;;;;;;4.17;3.87;;;;;;;4.64;87.24;99850.56;8236846;28;20078;-70
2022/05/01 05:32:35;;;;;;;4.00;3.60;;;;;;;4.72;87.09;99860.22;8199492;28;20483;-70
2022/05/01 05:36:36;;;;;;;4.50;3.83;;;;;;;4.79;86.95;99854.41;8234109;28;20435;-70
2022/05/01 05:40:38;;;;;;;3.70;3.37;;;;;;;4.91;87.60;99853.88;8217024;28;20038;-69
2022/05/01 05:44:40;;;;;;;4.38;3.97;;;;;;;5.07;87.31;99862.84;8235691;28;20043;-70
2022/05/01 05:48:41;;;;;;;4.10;3.80;;;;;;;5.27;87.30;99863.34;8198542;28;20108;-71
2022/05/01 05:52:42;;;;;;;4.60;4.20;;;;;;;5.46;87.39;99862.94;8228976;28;20050;-70
2022/05/01 05:56:44;;;;;;;5.27;4.77;;;;;;;5.63;86.60;99858.19;8224185;28;20066;-70
2022/05/01 06:00:45;;;;;;;5.20;4.70;;;;;;;5.90;86.18;99860.50;8199124;28;20566;-70
2022/05/01 06:04:47;;;;;;;5.10;4.60;;;;;;;6.15;84.57;99864.50;8216873;28;20133;-70
2022/05/01 06:08:48;;;;;;;5.00;4.47;;;;;;;6.47;83.09;99870.31;8233738;28;20054;-70
2022/05/01 06:12:50;;;;;;;5.00;4.30;;;;;;;6.85;81.67;99865.88;8237123;28;20043;-70
2022/05/01 06:16:53;;;;;;;5.63;4.77;;;;;;;7.06;80.97;99860.22;8227627;28;20549;-72
2022/05/01 06:20:54;;;;;;;6.47;4.47;;;;;;;7.26;80.18;99857.13;8201687;28;20073;-73
2022/05/01 06:25:00;;;;;;;5.88;4.40;;;;;;;7.75;79.37;99860.47;8217471;28;20431;-72
2022/05/01 06:29:02;;;;;;;8.45;4.85;;;;;;;8.08;78.31;99857.47;8214600;28;20523;-72
2022/05/01 06:33:03;;;;;;;5.53;4.30;;;;;;;8.45;77.57;99864.00;8209437;28;20162;-71
2022/05/01 06:37:05;;;;;;;4.38;3.90;;;;;;;8.95;75.67;99860.19;8213753;28;20527;-71
2022/05/01 06:41:07;;;;;;;6.47;4.97;;;;;;;9.29;75.24;99859.66;8230168;28;20054;-71
2022/05/01 06:45:09;;;;;;;6.18;4.50;;;;;;;10.03;71.80;99848.03;8226697;28;20101;-72
2022/05/01 06:49:11;;;;;;;10.60;4.43;;;;;;;10.64;68.90;99850.91;8229911;28;20133;-72
2022/05/01 06:53:12;;;;;;;6.13;4.22;;;;;;;11.16;65.76;99851.88;8234172;28;20065;-73
2022/05/01 06:57:14;;;;;;;5.15;4.18;;;;;;;11.71;64.88;99851.84;8230629;28;20046;-72
2022/05/01 07:01:16;;;;;;;4.67;4.27;;;;;;;12.16;62.68;99855.22;8226027;28;20070;-74
2022/05/01 07:05:18;;;;;;;5.95;4.40;;;;;;;12.57;60.68;99844.66;8201276;28;20069;-71
2022/05/01 07:09:20;;;;;;;6.82;4.07;;;;;;;12.42;58.51;99849.06;8218115;28;20073;-72
2022/05/01 07:13:21;;;;;;;5.03;4.07;;;;;;;12.51;58.99;99841.19;8234421;28;20082;-72
2022/05/01 07:17:23;;;;;;;3.97;3.57;;;;;;;13.13;58.21;99843.41;8212190;28;20050;-73
2022/05/01 07:21:24;;;;;;;5.13;3.97;;;;;;;13.49;55.58;99839.66;8226489;28;20300;-73
2022/05/01 07:25:26;;;;;;;5.37;4.20;;;;;;;13.83;55.68;99845.44;8234991;28;20065;-73
2022/05/01 07:29:27;;;;;;;5.47;4.20;;;;;;;14.09;53.89;99844.28;8216421;28;20090;-72
2022/05/01 07:33:30;;;;;;;5.93;4.55;;;;;;;14.38;53.83;99843.94;8194251;28;20043;-74
2022/05/01 07:37:31;;;;;;;;;;;;;;;14.63;52.60;99839.28;8197023;28;20126;-74
2022/05/01 07:41:33;;;;;;;5.53;4.18;;;;;;;14.75;52.35;99831.28;8203612;28;20592;-73
2022/05/01 07:45:35;;;;;;;5.72;3.90;;;;;;;14.97;51.74;99830.06;8166606;28;20325;-74
2022/05/01 07:49:46;;;;;;;6.07;4.60;;;;;;;14.74;51.14;99834.78;8184909;28;20094;-73
2022/05/01 07:53:49;;;;;;;;;;;;;;;14.48;52.35;99829.88;8189004;28;20051;-74
2022/05/01 07:57:50;;;;;;;5.05;3.53;;;;;;;14.48;53.53;99832.50;8187641;28;19933;-73
2022/05/01 08:01:53;;;;;;;4.05;3.33;;;;;;;14.43;53.29;99831.66;8168157;28;20480;-73
2022/05/01 08:05:54;;;;;;;4.53;4.13;;;;;;;14.26;53.28;99833.63;8188601;28;20051;-73
2022/05/01 08:09:56;;;;;;;9.52;3.92;;;;;;;13.92;53.73;99828.78;8170761;28;20142;-73
2022/05/01 08:13:58;;;;;;;8.68;3.83;;;;;;;13.88;54.47;99827.09;8170451;28;20700;-72
2022/05/01 08:22:20;;;;;;;9.80;4.03;;;;;;;13.84;53.87;99834.09;8187377;28;20118;-73
2022/05/01 08:26:22;;;;;;;5.10;3.58;;;;;;;13.83;56.20;99828.91;8187272;28;20769;-73
2022/05/01 08:30:23;;;;;;;4.97;3.80;;;;;;;13.86;56.43;99834.97;8187724;28;20138;-73
2022/05/01 08:34:25;;;;;;;7.35;4.30;;;;;;;13.64;53.79;99838.63;8199969;28;20061;-72
2022/05/01 08:38:26;;;;;;;4.47;3.50;;;;;;;13.48;55.13;99829.25;8219115;28;20139;-73
2022/05/01 08:42:30;;;;;;;6.20;3.78;;;;;;;13.49;57.28;99828.38;8219830;28;20047;-73
2022/05/01 08:46:56;;;;;;;7.75;3.80;;;;;;;13.39;55.58;99831.94;8216765;28;20078;-74
2022/05/01 08:51:01;;;;;;;7.40;3.30;;;;;;;13.25;55.17;99840.72;8202576;28;20060;-74
2022/05/01 08:55:04;;;;;;;3.80;3.00;;;;;;;13.22;56.01;99842.50;8222318;28;20074;-73
2022/05/01 08:59:09;;;;;;;2.88;2.53;;;;;;;13.33;56.64;99847.63;8222010;28;20153;-72
2022/05/01 09:03:11;;;;;;;4.20;2.78;;;;;;;13.43;56.00;99837.09;8218805;28;20058;-72
2022/05/01 09:07:12;;;;;;;2.67;2.47;;;;;;;13.43;54.54;99842.31;8206963;28;20066;-72
2022/05/01 09:15:41;;;;;;;3.42;2.35;;;;;;;13.49;56.43;99837.06;8228135;28;20399;-72
2022/05/01 09:19:45;;;;;;;2.83;2.47;;;;;;;13.54;56.53;99839.63;8232584;28;20053;-72
2022/05/01 09:23:48;;;;;;;4.95;2.65;;;;;;;13.63;56.38;99842.13;8202538;28;20049;-71
2022/05/01 09:27:56;;;;;;;5.00;2.75;;;;;;;13.68;55.74;99837.75;8213507;28;20043;-71
2022/05/01 09:32:00;;;;;;;3.30;2.38;;;;;;;13.66;55.72;99833.44;8190811;28;20055;-71
2022/05/01 09:36:02;;;;;;;2.90;2.45;;;;;;;13.77;55.45;99837.66;8214846;28;20102;-72
2022/05/01 09:40:04;;;;;;;4.70;2.42;;;;;;;13.96;55.13;99833.09;8215138;28;20070;-71
2022/05/01 09:44:13;;;;;;;10.05;2.42;;;;;;;14.01;52.67;99833.94;8194639;28;20085;-72
2022/05/01 09:48:19;;;;;;;4.60;2.63;;;;;;;14.10;54.03;99833.81;8194386;28;20093;-71
2022/05/01 09:52:21;;;;;;;3.65;2.10;;;;;;;14.20;53.39;99832.84;8197316;28;20523;-72
2022/05/01 09:56:22;;;;;;;5.30;2.60;;;;;;;14.39;53.44;99835.22;8214157;28;20364;-71
2022/05/01 10:00:37;;;;;;;4.57;2.53;;;;;;;14.61;52.63;99836.69;8207838;28;20165;-72
2022/05/01 10:04:40;;;;;;;3.58;2.50;;;;;;;14.68;51.15;99840.06;8213891;28;20314;-72
2022/05/01 10:08:44;;;;;;;2.85;2.28;;;;;;;14.91;51.65;99831.91;8214407;28;20047;-72
2022/05/01 10:12:46;;;;;;;5.40;2.58;;;;;;;15.16;50.86;99828.03;8198498;28;20231;-72
2022/05/01 10:16:48;;;;;;;2.83;2.63;;;;;;;15.56;50.57;99820.34;8194296;28;20047;-72
2022/05/01 10:20:50;;;;;;;;;;;;;;;15.85;50.37;99819.00;8198348;28;20109;-71
2022/05/01 10:24:53;;;;;;;4.63;2.70;;;;;;;16.22;49.74;99809.53;8216100;28;20004;-72
2022/05/01 10:29:13;;;;;;;7.57;2.55;;;;;;;16.70;49.42;99805.91;8199667;28;20054;-71
2022/05/01 10:33:41;;;;;;;3.75;2.70;;;;;;;17.00;46.81;99809.56;8219959;28;20050;-71
2022/05/01 10:38:03;;;;;;;3.70;2.58;;;;;;;17.27;47.72;99808.06;8228400;28;20066;-72
2022/05/01 10:42:05;;;;;;;3.92;2.60;;;;;;;17.39;45.15;99791.97;8220769;28;20054;-72
2022/05/01 10:46:16;;;;;;;6.03;2.80;;;;;;;17.58;46.22;99800.22;8212902;28;20871;-72
2022/05/01 10:50:35;;;;;;;6.93;2.67;;;;;;;17.66;45.37;99783.38;8214962;28;20058;-72
2022/05/01 10:54:38;;;;;;;4.43;2.65;;;;;;;18.02;45.16;99789.41;8218720;28;20039;-72
2022/05/01 10:58:40;;;;;;;5.97;2.42;;;;;;;18.16;45.07;99782.91;8196342;28;20070;-72
2022/05/01 11:02:45;;;;;;;3.28;2.45;;;;;;;18.35;44.43;99776.19;8195311;28;20738;-72
2022/05/01 11:06:50;;;;;;;5.07;2.38;;;;;;;18.70;44.31;99770.75;8201543;28;20359;-72
2022/05/01 11:10:54;;;;;;;3.90;2.50;;;;;;;19.18;43.47;99770.06;8217607;28;20137;-72
2022/05/01 11:15:05;;;;;;;4.95;2.70;;;;;;;19.39;42.11;99755.31;8211092;28;20109;-72
2022/05/01 11:19:07;;;;;;;2.67;2.40;;;;;;;19.43;41.60;99756.94;8199531;28;20062;-71
2022/05/01 11:23:30;;;;;;;4.50;3.05;;;;;;;19.10;42.12;99748.41;8200015;28;20054;-72
2022/05/01 11:27:51;;;;;;;2.88;2.50;;;;;;;18.57;42.60;99737.81;8212959;28;20045;-72
2022/05/01 11:31:52;;;;;;;6.40;2.70;;;;;;;18.94;43.73;99734.88;8212252;28;20782;-73
2022/05/01 11:35:57;;;;;;;4.32;2.25;;;;;;;19.10;43.59;99744.91;8201435;28;20767;-73
2022/05/01 11:40:06;;;;;;;3.55;2.60;;;;;;;18.82;43.00;99731.78;8203142;28;20050;-73
2022/05/01 11:44:28;;;;;;;4.03;2.47;;;;;;;18.42;43.44;99731.25;8207172;28;20067;-73
2022/05/01 11:48:30;;;;;;;2.75;2.53;;;;;;;17.84;43.08;99726.03;8216101;28;20068;-73
2022/05/01 11:52:36;;;;;;;5.97;1.95;;;;;;;17.59;46.03;99729.28;8219685;28;20043;-73
2022/05/01 12:05:28;;;;;;;2.80;2.10;;;;;;;17.74;46.11;99718.38;8218134;28;20143;-73
2022/05/01 12:09:30;;;;;;;4.13;2.33;;;;;;;17.61;44.82;99716.13;8202093;28;20057;-73
2022/05/01 12:13:32;;;;;;;3.22;1.90;;;;;;;17.61;46.42;99716.13;8216687;28;20053;-73
2022/05/01 12:17:39;;;;;;;5.85;2.33;;;;;;;17.43;45.04;99707.88;8198582;28;20439;-73
2022/05/01 12:21:41;;;;;;;3.85;2.20;;;;;;;17.37;46.76;99701.91;8213550;28;20089;-73
2022/05/01 12:25:46;;;;;;;4.18;2.28;;;;;;;17.41;47.18;99701.75;8222032;28;20161;-73
2022/05/01 12:29:50;;;;;;;2.33;2.03;;;;;;;17.40;46.54;99696.56;8211022;28;20053;-73
2022/05/01 12:33:52;;;;;;;4.68;1.80;;;;;;;17.43;47.29;99691.25;8216104;28;20057;-73
2022/05/01 12:37:54;;;;;;;2.60;1.98;;;;;;;17.51;47.08;99700.63;8194138;28;20050;-73
2022/05/01 12:46:30;;;;;;;3.55;1.58;;;;;;;17.76;46.59;99685.06;8210923;28;20720;-73
2022/05/01 12:50:34;;;;;;;5.55;2.47;;;;;;;18.40;45.69;99677.88;8206395;28;20667;-73
2022/05/01 12:54:36;;;;;;;3.45;2.22;;;;;;;18.73;43.25;99674.22;8206186;28;20057;-73
2022/05/01 12:58:37;;;;;;;3.05;1.85;;;;;;;19.07;44.06;99660.78;8202297;28;20419;-73
2022/05/01 13:02:40;;;;;;;3.00;1.87;;;;;;;19.39;42.65;99659.63;8223691;28;20065;-74
2022/05/01 13:06:42;;;;;;;2.05;1.50;;;;;;;19.31;43.00;99662.56;8206329;28;20062;-73
2022/05/01 13:11:27;;;;;;;4.53;1.77;;;;;;;19.12;42.18;99656.22;8205340;28;20086;-73
2022/05/01 13:15:37;;;;;;;4.78;1.80;;;;;;;19.41;42.52;99655.19;8189433;28;20082;-73
2022/05/01 13:19:44;;;;;;;2.45;1.38;;;;;;;19.84;42.83;99654.50;8212218;28;20388;-73
2022/05/01 13:23:49;;;;;;;2.95;1.58;;;;;;;19.80;40.69;99645.84;8216948;28;20078;-73
2022/05/01 13:27:50;;;;;;;4.05;1.60;;;;;;;19.69;41.53;99639.25;8214106;28;20053;-73
2022/05/01 13:31:52;;;;;;;1.83;1.60;;;;;;;19.35;42.09;99639.59;8212242;28;20260;-73
2022/05/01 13:35:53;;;;;;;2.90;1.70;;;;;;;19.04;42.58;99637.22;8196760;28;20149;-73
2022/05/01 13:48:39;;;;;;;3.80;1.70;;;;;;;18.21;44.17;99626.78;8213011;28;20142;-73
2022/05/01 13:52:40;;;;;;;2.35;1.80;;;;;;;18.02;44.61;99623.00;8233232;28;20089;-73
2022/05/01 13:56:44;;;;;;;1.65;1.23;;;;;;;17.84;44.96;99618.31;8237191;28;20579;-73
2022/05/01 14:00:46;;;;;;;3.13;1.58;;;;;;;17.68;45.63;99610.91;8224855;28;20070;-73
2022/05/01 14:04:47;;;;;;;2.80;1.30;;;;;;;17.45;45.55;99610.69;8226138;28;20050;-73
2022/05/01 14:08:49;;;;;;;2.30;1.10;;;;;;;17.26;47.02;99604.25;8214885;28;20046;-73
2022/05/01 14:12:50;;;;;;;2.70;1.47;;;;;;;17.08;47.00;99606.47;8215881;28;20064;-73
2022/05/01 14:16:52;;;;;;;2.40;1.17;;;;;;;16.90;47.96;99602.59;8211209;28;20470;-72
2022/05/01 14:20:57;;;;;;;3.25;1.30;;;;;;;16.84;47.09;99605.34;8197830;28;20077;-73
2022/05/01 14:25:01;;;;;;;2.22;1.40;;;;;;;16.71;48.22;99592.63;8196865;28;20049;-73
2022/05/01 14:29:03;;;;;;;5.32;1.30;;;;;;;16.62;48.69;99591.03;8214187;28;20086;-73
2022/05/01 14:33:14;;;;;;;1.53;1.20;;;;;;;16.51;48.98;99587.81;8210369;28;20057;-72
2022/05/01 14:37:31;;;;;;;2.25;1.38;;;;;;;16.43;50.36;99589.78;8196285;28;20070;-73
2022/05/01 14:41:44;;;;;;;3.28;1.23;;;;;;;16.36;50.22;99591.72;8214066;28;20043;-71
2022/05/01 14:45:53;;;;;;;1.42;1.27;;;;;;;16.32;49.89;99587.44;8209443;28;20085;-71
2022/05/01 14:49:59;;;;;;;1.80;1.08;;;;;;;16.33;49.87;99578.66;8196137;28;20049;-72
2022/05/01 14:54:03;;;;;;;1.85;1.27;;;;;;;16.36;51.23;99590.84;8212367;28;20046;-72
2022/05/01 15:06:16;;;;;;;3.50;1.20;;;;;;;16.33;48.75;99582.13;8190604;28;20865;-72
2022/05/01 15:06:53;;;;;;;2.10;1.30;;;;;;;16.28;47.99;99583.16;8211315;28;20043;-73
2022/05/01 15:10:56;;;;;;;2.58;1.38;;;;;;;16.21;47.56;99579.84;8211692;28;20082;-74
2022/05/01 15:14:58;;;;;;;2.97;1.10;;;;;;;16.20;49.65;99577.25;8214925;28;20537;-72
2022/05/01 15:19:24;;;;;;;1.60;1.50;;;;;;;16.17;49.43;99572.97;8210653;28;20113;-72
2022/05/01 15:23:55;;;;;;;1.60;1.33;;;;;;;16.17;49.60;99579.97;8194259;28;20363;-72
2022/05/01 15:28:04;;;;;;;1.52;1.20;;;;;;;16.13;50.93;99573.06;8210792;28;20424;-72
2022/05/01 15:32:08;;;;;;;2.28;1.25;;;;;;;16.12;52.02;99576.56;8190514;28;20090;-71
2022/05/01 15:36:18;;;;;;;1.88;1.10;;;;;;;16.07;50.90;99574.06;8210674;28;20070;-72
2022/05/01 15:40:19;;;;;;;3.25;1.20;;;;;;;16.03;51.50;99580.28;8195823;28;20050;-72
2022/05/01 15:44:24;;;;;;;2.35;1.10;;;;;;;15.99;50.77;99578.63;8216002;28;20170;-72
2022/05/01 15:53:36;;;;;;;2.60;1.10;;;;;;;15.91;50.97;99575.31;8204154;28;20089;-72
2022/05/01 15:57:13;;;;;;;1.08;1.00;;;;;;;15.73;53.57;99578.34;8228575;28;20133;-72
2022/05/01 16:01:14;;;;;;;;;;;;;;;15.64;54.91;99587.28;8212056;28;20137;-72
2022/05/01 16:05:16;;;;;;;1.10;1.00;;;;;;;15.59;52.73;99578.66;8237975;28;19960;-71
2022/05/01 16:09:46;;;;;;;0.83;0.83;;;;;;;15.51;54.54;99578.78;8227667;28;20046;-74
2022/05/01 16:14:16;;;;;;;1.73;1.17;;;;;;;15.42;53.46;99571.13;8193553;28;20315;-74
2022/05/01 16:18:39;;;;;;;1.27;1.17;;;;;;;15.37;54.76;99571.22;8198440;28;20078;-73
2022/05/01 16:22:49;;;;;;;2.78;1.00;;;;;;;15.27;54.10;99569.72;8230031;28;20046;-72
2022/05/01 16:27:00;;;;;;;2.85;1.00;;;;;;;15.22;54.95;99571.53;8195148;28;20614;-73
2022/05/01 16:31:08;;;;;;;2.13;0.93;;;;;;;15.13;55.25;99565.66;8202632;28;20077;-71
2022/05/01 16:35:11;;;;;;;1.63;0.88;;;;;;;15.06;56.87;99559.66;8226292;28;20050;-72
2022/05/01 16:39:13;;;;;;;2.85;1.08;;;;;;;15.00;58.38;99558.03;8229132;28;20073;-72
2022/05/01 16:43:17;;;;;;;1.88;1.23;;;;;;;14.95;58.04;99561.66;8227390;28;20057;-72
2022/05/01 16:47:19;;;;;;;1.85;1.00;;;;;;;14.93;56.65;99550.34;8222371;28;20069;-72
2022/05/01 16:51:21;;;;;;;;;;;;;;;14.92;57.93;99552.13;8228371;28;20141;-72
2022/05/01 16:55:25;;;;;;;1.67;1.48;;;;;;;14.87;57.79;99545.22;8237735;28;19961;-71
2022/05/01 16:59:28;;;;;;;0.98;0.98;;;;;;;14.81;58.10;99549.69;8231250;28;20056;-72
2022/05/01 17:03:46;;;;;;;0.98;0.95;;;;;;;14.76;59.36;99550.69;8194217;28;20153;-72
2022/05/01 17:08:07;;;;;;;1.42;1.10;;;;;;;14.73;60.09;99548.13;8198618;28;20070;-71
2022/05/01 17:12:42;;;;;;;1.38;1.00;;;;;;;14.70;61.98;99556.00;8194918;28;20074;-70
2022/05/01 17:17:32;;;;;;;1.65;0.88;;;;;;;14.62;61.70;99550.06;8222935;28;20053;-71
2022/05/01 17:21:57;;;;;;;1.35;0.90;;;;;;;14.58;61.33;99551.03;8221652;28;20127;-71
2022/05/01 17:26:02;;;;;;;1.42;1.00;;;;;;;14.57;62.09;99547.53;8202370;28;20050;-70
2022/05/01 17:30:07;;;;;;;1.35;1.00;;;;;;;14.54;62.61;99546.72;8220538;28;20058;-72
2022/05/01 17:34:11;;;;;;;1.20;1.10;;;;;;;14.46;62.93;99554.69;8209115;28;20057;-71
2022/05/01 17:38:15;;;;;;;1.33;0.90;;;;;;;14.39;63.08;99553.91;8229609;28;20066;-71
2022/05/01 17:42:18;;;;;;;1.20;1.10;;;;;;;14.37;63.16;99555.72;8185830;28;20062;-71
2022/05/01 17:46:20;;;;;;;4.10;1.20;;;;;;;14.36;63.70;99555.69;8198507;28;20069;-71
2022/05/01 17:50:24;;;;;;;3.00;1.17;;;;;;;14.28;63.71;99549.75;8222686;28;20539;-71
2022/05/01 17:54:30;;;;;;;3.45;1.10;;;;;;;14.18;63.67;99560.38;8232550;28;20144;-71
2022/05/01 17:58:32;;;;;;;1.75;1.10;;;;;;;14.19;63.95;99546.44;8237071;28;20046;-71
2022/05/01 18:02:52;;;;;;;1.52;1.23;;;;;;;14.20;62.03;99548.16;8219264;28;20812;-72
2022/05/01 18:12:03;;;;;;;0.90;0.90;;;;;;;14.13;63.56;99549.13;8209682;28;20046;-71
2022/05/01 18:16:27;;;;;;;2.08;1.38;;;;;;;13.99;64.65;99548.47;8226875;28;20093;-71
2022/05/01 18:20:33;;;;;;;2.97;1.30;;;;;;;13.87;65.71;99559.13;8227444;28;20057;-70
2022/05/01 18:24:52;;;;;;;2.38;1.30;;;;;;;13.68;65.73;99552.44;8230101;28;20492;-73
2022/05/01 18:33:36;;;;;;;1.20;1.10;;;;;;;13.38;67.42;99553.72;8223238;28;20052;-70
2022/05/01 18:38:15;;;;;;;1.13;1.10;;;;;;;13.15;67.90;99549.63;8221320;28;20049;-72
2022/05/01 18:42:20;;;;;;;2.83;1.30;;;;;;;12.91;69.01;99547.31;8225320;28;20050;-71
2022/05/01 18:46:26;;;;;;;2.60;1.23;;;;;;;12.72;69.32;99551.84;8197821;28;20081;-71
2022/05/01 18:50:28;;;;;;;2.80;1.70;;;;;;;12.52;70.20;99554.66;8224192;28;20042;-71
2022/05/01 18:54:33;;;;;;;2.17;1.23;;;;;;;12.34;70.46;99554.84;8215605;28;20137;-70
2022/05/01 18:58:39;;;;;;;1.40;1.30;;;;;;;12.20;70.77;99559.28;8225927;28;20062;-70
2022/05/01 19:02:41;;;;;;;1.77;1.05;;;;;;;11.98;71.33;99559.47;8210590;28;20157;-71
2022/05/01 19:07:00;;;;;;;1.80;1.23;;;;;;;11.84;72.11;99569.09;8219457;28;20105;-71
2022/05/01 19:11:19;;;;;;;1.88;1.33;;;;;;;11.71;72.87;99576.09;8213256;28;20153;-71
2022/05/01 19:15:34;;;;;;;2.70;1.30;;;;;;;11.71;72.82;99581.31;8217188;28;20052;-70
2022/05/01 19:20:07;;;;;;;3.00;0.98;;;;;;;11.62;73.39;99581.34;8203860;28;20042;-71
2022/05/01 19:29:35;;;;;;;3.72;1.20;;;;;;;11.40;73.58;99587.53;8219996;28;20135;-71
2022/05/01 19:33:59;;;;;;;4.05;1.08;;;;;;;11.29;74.16;99584.09;8121226;29;20754;-70
2022/05/01 19:38:13;;;;;;;2.97;1.20;;;;;;;11.17;74.57;99585.03;8119126;29;20413;-70
2022/05/01 19:42:15;;;;;;;2.03;1.13;;;;;;;11.02;74.57;99583.34;8092441;29;20067;-70
2022/05/01 19:46:41;;;;;;;4.18;1.70;;;;;;;10.80;74.82;99579.97;8110613;29;20369;-70
2022/05/01 19:55:13;;;;;;;1.35;1.08;;;;;;;10.50;76.80;99585.19;8138342;29;20509;-72
2022/05/01 19:59:17;;;;;;;2.35;1.40;;;;;;;10.40;77.22;99592.09;8107826;29;20062;-70
2022/05/01 20:03:21;;;;;;;2.00;1.50;;;;;;;10.34;77.18;99596.44;8154873;28;20078;-71
2022/05/01 20:07:25;;;;;;;1.63;1.52;;;;;;;10.24;77.71;99600.78;8216646;28;20038;-70
2022/05/01 20:11:28;;;;;;;1.55;1.42;;;;;;;10.15;77.77;99601.59;8222229;28;20065;-71
2022/05/01 20:15:49;;;;;;;1.90;1.80;;;;;;;10.11;77.73;99602.47;8237281;28;20514;-71
2022/05/01 20:20:04;;;;;;;1.77;1.40;;;;;;;9.99;77.72;99605.91;8193934;28;20515;-70
2022/05/01 20:24:43;;;;;;;4.82;2.10;;;;;;;9.95;78.49;99598.13;8224130;28;20047;-70
2022/05/01 20:29:11;;;;;;;1.90;1.70;;;;;;;9.80;78.41;99600.69;8210786;28;20516;-71
2022/05/01 20:33:34;;;;;;;2.22;1.80;;;;;;;9.75;78.77;99608.47;8225232;28;20375;-70
2022/05/01 20:38:09;;;;;;;2.15;1.98;;;;;;;9.67;79.63;99602.38;8226767;28;20070;-71